• Join FlightAware (Why Join?)
  • Login
  • US Flag 
11:58AM EDT


 

Airport Tracker/Info


-or-


 

Live Flight TrackerFlight Track Log ✈ N7711Y ✈ 06-Sep-2013 ✈ KVDF - KCRG

Flight Track Log - Related Links

Times and Time Zones

All times are in EDT time to prevent confusion due to time zone crossing. See the N7711Y flight status page for this flight to view local times or setup timezone preferences in your user account.

Time Position Orientation Groundspeed Altitude Reporting Facility
EDT Latitude Longitude Course Direction KTS MPH feet Rate Location/Type
07:08PM 28.1500 -82.3167 17° North 125 144 7,600  Level Tampa TRACON
07:09PM 28.1945 -82.2821 17° North  Level Estimated
07:09PM 28.1667 -82.2833 60° Northeast 148 170 8,200  Level Tampa TRACON
07:10PM 28.2203 -82.2730 17° North  Level Estimated
07:10PM 28.1833 -82.2333 69° East 175 201 8,000  Level Tampa TRACON
07:11PM 28.2460 -82.2640 17° North  Level Estimated
07:11PM 28.2000 -82.1833 69° East 179 206 8,000  Level Tampa TRACON
07:12PM 28.2718 -82.2550 17° North  Level Estimated
07:12PM 28.2500 -82.1833 360° North 179 206 8,000  Level Tampa TRACON
07:13PM 28.2976 -82.2459 17° North  Level Estimated
07:13PM 28.3000 -82.1833 360° North 179 206 8,000  Level Tampa TRACON
07:14PM 28.3234 -82.2368 17° North  Level Estimated
07:14PM 28.3500 -82.2000 344° North 178 205 8,000  Level Tampa TRACON
07:15PM 28.4000 -82.2000 360° North 174 200 8,000  Level Tampa TRACON
07:16PM 28.4333 -82.2000 360° North 172 198 8,000  Level Tampa TRACON
07:18PM 28.5239 -82.2217 348° North 171 197 8,000  Level Jacksonville Center
07:20PM 28.5679 -82.2828 309° West  Level FlightAware Approximate
07:27PM 28.7810 -82.4690 30° Northeast  Level FlightAware Approximate
07:28PM 28.8183 -82.4447 30° Northeast  Level FlightAware Approximate
07:29PM 28.8553 -82.4205 30° Northeast  Level FlightAware Approximate
07:30PM 28.8923 -82.3964 30° Northeast  Level FlightAware Approximate
07:31PM 28.9293 -82.3722 30° Northeast  Level FlightAware Approximate
07:32PM 28.9663 -82.3480 30° Northeast  Level FlightAware Approximate
07:33PM 29.0033 -82.3238 30° Northeast  Level FlightAware Approximate
07:34PM 29.0442 -82.2993 16° North  Level Estimated
07:35PM 29.0849 -82.2745 28° Northeast  Level FlightAware Approximate
07:36PM 29.1257 -82.2497 28° Northeast  Level FlightAware Approximate
07:37PM 29.1664 -82.2249 28° Northeast  Level FlightAware Approximate
07:38PM 29.2071 -82.2000 28° Northeast  Level FlightAware Approximate
07:39PM 29.2449 -82.1769 28° Northeast  Level FlightAware Approximate
07:40PM 29.2828 -82.1538 28° Northeast  Level FlightAware Approximate
07:41PM 29.3206 -82.1306 28° Northeast  Level FlightAware Approximate
07:42PM 29.3584 -82.1074 28° Northeast  Level FlightAware Approximate
07:43PM 29.3962 -82.0843 28° Northeast  Level FlightAware Approximate
07:44PM 29.4340 -82.0611 28° Northeast  Level FlightAware Approximate
07:45PM 29.4733 -82.0369 28° Northeast  Level FlightAware Approximate
07:46PM 29.5125 -82.0128 28° Northeast  Level FlightAware Approximate
07:47PM 29.5520 -81.9891 29° Northeast  Level Estimated
07:48PM 29.5909 -81.9643 29° Northeast  Level FlightAware Approximate
07:49PM 29.6299 -81.9395 29° Northeast  Level FlightAware Approximate
07:50PM 29.6688 -81.9147 29° Northeast  Level FlightAware Approximate
07:51PM 29.7077 -81.8898 29° Northeast  Level FlightAware Approximate
07:52PM 29.7466 -81.8649 29° Northeast  Level FlightAware Approximate
07:53PM 29.7856 -81.8400 29° Northeast  Level FlightAware Approximate
07:54PM 29.8245 -81.8151 29° Northeast  Level FlightAware Approximate
07:55PM 29.8634 -81.7902 29° Northeast  Level FlightAware Approximate
07:56PM 29.9032 -81.7671 29° Northeast  Level Estimated
07:57PM 29.9419 -81.7419 29° Northeast  Level FlightAware Approximate
07:58PM 29.9807 -81.7167 29° Northeast  Level FlightAware Approximate
07:59PM 30.0196 -81.6915 29° Northeast  Level FlightAware Approximate
08:00PM 30.0583 -81.6663 29° Northeast  Level FlightAware Approximate
08:01PM 30.0986 -81.6443 25° Northeast  Level Estimated
08:02PM 30.1387 -81.6219 26° Northeast  Level FlightAware Approximate
08:03PM 30.1787 -81.5994 26° Northeast  Level FlightAware Approximate
08:04PM 30.2188 -81.5769 26° Northeast  Level FlightAware Approximate
08:05PM 30.2592 -81.5554 33° Northeast  Level Estimated
08:06PM 30.2966 -81.5275 33° Northeast  Level FlightAware Approximate
08:07PM 30.3333 -81.5000 North  Level FlightAware Approximate
08:08PM 30.3363 -81.5144 North  Level Estimated
08:09PM 30.3363 -81.5144 North  Level Estimated
08:10PM 30.3363 -81.5144 North  Level Estimated
08:11PM 30.3363 -81.5144 North  Level Estimated
08:12PM 30.3363 -81.5144 North  Level Estimated
08:13PM 30.3363 -81.5144 North  Level Estimated
08:14PM 30.3363 -81.5144 North  Level Estimated
08:15PM 30.3363 -81.5144 North  Level Estimated
08:16PM 30.3363 -81.5144 North  Level Estimated
08:17PM 30.3363 -81.5144 North  Level Estimated
08:18PM 30.3363 -81.5144 North  Level Estimated
08:19PM 30.3363 -81.5144 North  Level Estimated